createdAt,value
2024-02-10T00:00:21.127Z,50.80
2024-02-10T00:02:50.381Z,54.28
2024-02-10T00:05:17.570Z,58.13
2024-02-10T00:07:53.913Z,53.42
2024-02-10T00:10:26.158Z,50.15
2024-02-10T00:12:55.776Z,48.53
2024-02-10T00:15:24.149Z,55.53
2024-02-10T00:17:51.734Z,50.38
2024-02-10T00:20:21.493Z,67.60
2024-02-10T00:22:49.281Z,60.10
2024-02-10T00:25:16.523Z,49.15
2024-02-10T00:27:48.054Z,47.88
2024-02-10T00:30:17.751Z,56.45
2024-02-10T00:32:46.056Z,49.47
2024-02-10T00:35:13.284Z,56.30
2024-02-10T00:37:40.656Z,52.58
2024-02-10T00:40:08.299Z,52.92
2024-02-10T00:42:35.491Z,48.22
2024-02-10T00:45:04.683Z,55.60
2024-02-10T00:47:32.703Z,59.08
2024-02-10T00:50:01.646Z,61.97
2024-02-10T00:52:29.117Z,46.85
2024-02-10T00:54:57.670Z,46.90
2024-02-10T00:57:24.628Z,43.53
2024-02-10T00:59:51.892Z,55.17
2024-02-10T01:02:20.616Z,38.67
2024-02-10T01:04:48.925Z,53.92
2024-02-10T01:07:17.222Z,40.17
2024-02-10T01:09:53.443Z,45.55
2024-02-10T01:12:20.733Z,70.90
2024-02-10T01:14:47.648Z,45.33
2024-02-10T01:17:14.747Z,42.70
2024-02-10T01:19:51.120Z,48.40
2024-02-10T01:22:27.546Z,38.17
2024-02-10T01:24:57.595Z,38.42
2024-02-10T01:27:28.870Z,49.17
2024-02-10T01:29:57.812Z,50.70
2024-02-10T01:32:25.310Z,40.90
2024-02-10T01:34:54.970Z,45.13
2024-02-10T01:37:23.257Z,41.03
2024-02-10T01:39:55.675Z,37.47
2024-02-10T01:42:28.656Z,40.40
2024-02-10T01:44:56.197Z,50.40
2024-02-10T01:47:23.268Z,44.60
2024-02-10T01:49:50.254Z,42.45
2024-02-10T01:52:17.241Z,52.83
2024-02-10T01:54:48.610Z,31.70
2024-02-10T01:57:15.798Z,46.67
2024-02-10T01:59:43.506Z,56.95
2024-02-10T02:02:15.770Z,35.15
2024-02-10T02:04:44.823Z,39.20
2024-02-10T02:07:12.066Z,36.70
2024-02-10T02:09:39.270Z,40.17
2024-02-10T02:12:09.649Z,38.45
2024-02-10T02:14:37.399Z,24.70
2024-02-10T02:17:06.054Z,41.65
2024-02-10T02:19:34.347Z,34.60
2024-02-10T02:22:04.470Z,31.85
2024-02-10T02:24:31.944Z,27.25
2024-02-10T02:27:10.542Z,36.05
2024-02-10T02:29:37.520Z,30.23
2024-02-10T02:32:05.430Z,24.88
2024-02-10T02:34:35.509Z,26.25
2024-02-10T02:37:03.986Z,33.90
2024-02-10T02:39:35.008Z,27.27
2024-02-10T02:42:03.982Z,31.77
2024-02-10T02:44:30.883Z,24.75
2024-02-10T02:47:00.584Z,22.90
2024-02-10T02:49:27.608Z,32.05
2024-02-10T02:51:56.124Z,29.23
2024-02-10T02:54:23.107Z,27.73
2024-02-10T02:56:56.939Z,32.95
2024-02-10T02:59:24.792Z,23.45
2024-02-10T03:01:52.972Z,27.83
2024-02-10T03:04:20.392Z,18.88
2024-02-10T03:06:47.534Z,22.08
2024-02-10T03:09:14.559Z,29.13
2024-02-10T03:11:41.947Z,19.15
2024-02-10T03:14:08.974Z,15.30
2024-02-10T03:16:35.874Z,12.80
2024-02-10T03:19:05.923Z,16.15
2024-02-10T03:21:37.257Z,24.05
2024-02-10T03:24:05.569Z,20.95
2024-02-10T03:26:33.649Z,13.15
2024-02-10T03:29:04.683Z,20.35
2024-02-10T03:31:35.053Z,16.60
2024-02-10T03:34:03.142Z,18.80
2024-02-10T03:36:32.416Z,13.88
2024-02-10T03:39:08.527Z,17.70
2024-02-10T03:41:35.513Z,15.27
2024-02-10T03:44:03.256Z,17.05
2024-02-10T03:46:32.024Z,17.80
2024-02-10T03:49:00.485Z,8.90
2024-02-10T03:51:28.573Z,13.02
2024-02-10T03:53:57.122Z,17.13
2024-02-10T03:56:28.181Z,17.10
2024-02-10T03:58:55.234Z,13.05
2024-02-10T04:01:23.167Z,6.60
2024-02-10T04:03:50.253Z,9.32
2024-02-10T04:06:17.533Z,6.80
2024-02-10T04:08:49.056Z,7.82
2024-02-10T04:11:18.568Z,9.52
2024-02-10T04:13:46.748Z,9.88
2024-02-10T04:16:14.708Z,4.85
2024-02-10T04:18:42.579Z,9.02
2024-02-10T04:21:10.980Z,10.57
2024-02-10T04:23:41.699Z,5.68
2024-02-10T04:26:09.684Z,8.88
2024-02-10T04:28:36.826Z,6.10
2024-02-10T04:31:04.925Z,7.07
2024-02-10T04:33:31.917Z,12.50
2024-02-10T04:35:58.935Z,3.05
2024-02-10T04:38:26.070Z,5.25
2024-02-10T04:40:54.595Z,11.02
2024-02-10T04:43:21.943Z,6.43
2024-02-10T04:45:50.415Z,8.60
2024-02-10T04:48:21.234Z,8.60
2024-02-10T04:50:49.876Z,6.75
2024-02-10T04:53:17.125Z,17.40
2024-02-10T04:55:44.542Z,8.65
2024-02-10T04:58:14.416Z,15.98
2024-02-10T05:00:42.599Z,8.02
2024-02-10T05:03:09.843Z,11.70
2024-02-10T05:05:36.958Z,15.13
2024-02-10T05:08:04.283Z,7.60
2024-02-10T05:10:31.253Z,21.70
2024-02-10T05:12:58.493Z,14.77
2024-02-10T05:15:27.049Z,16.23
2024-02-10T05:17:55.225Z,20.27
2024-02-10T05:20:24.539Z,20.13
2024-02-10T05:22:53.573Z,19.35
2024-02-10T05:25:22.529Z,15.30
2024-02-10T05:27:50.543Z,12.82
2024-02-10T05:30:25.435Z,17.80
2024-02-10T05:32:54.346Z,14.75
2024-02-10T05:35:21.790Z,21.73
2024-02-10T05:38:00.588Z,20.10
2024-02-10T05:40:28.934Z,19.60
2024-02-10T05:43:01.015Z,15.27
2024-02-10T05:45:29.821Z,22.42
2024-02-10T05:47:57.161Z,18.17
2024-02-10T05:50:26.618Z,13.63
2024-02-10T05:52:55.115Z,14.77
2024-02-10T05:55:28.339Z,18.00
2024-02-10T05:58:03.966Z,21.43
2024-02-10T06:00:32.382Z,15.30
2024-02-10T06:03:00.933Z,20.08
2024-02-10T06:05:29.891Z,16.50
2024-02-10T06:07:58.729Z,21.15
2024-02-10T06:10:26.209Z,15.27
2024-02-10T06:12:54.378Z,15.85
2024-02-10T06:15:22.116Z,22.17
2024-02-10T06:17:55.814Z,16.70
2024-02-10T06:20:26.914Z,19.00
2024-02-10T06:22:55.946Z,21.38
2024-02-10T06:25:26.167Z,15.15
2024-02-10T06:27:56.052Z,20.10
2024-02-10T06:30:26.744Z,15.68
2024-02-10T06:32:56.296Z,20.35
2024-02-10T06:35:23.580Z,14.13
2024-02-10T06:37:51.139Z,19.25
2024-02-10T06:40:19.570Z,17.38
2024-02-10T06:42:50.222Z,15.63
2024-02-10T06:45:22.288Z,18.00
2024-02-10T06:47:51.281Z,16.45
2024-02-10T06:50:26.221Z,12.73
2024-02-10T06:52:55.285Z,11.10
2024-02-10T06:55:27.605Z,18.80
2024-02-10T06:57:56.965Z,13.77
2024-02-10T07:00:24.810Z,10.48
2024-02-10T07:02:53.022Z,20.13
2024-02-10T07:05:21.330Z,9.15
2024-02-10T07:07:50.692Z,10.90
2024-02-10T07:10:24.365Z,12.02
2024-02-10T07:12:58.608Z,6.15
2024-02-10T07:15:31.538Z,14.13
2024-02-10T07:17:59.592Z,10.63
2024-02-10T07:20:27.270Z,9.50
2024-02-10T07:22:57.878Z,6.65
2024-02-10T07:25:29.630Z,4.65
2024-02-10T07:28:03.484Z,5.13
2024-02-10T07:30:32.578Z,9.32
2024-02-10T07:33:26.240Z,16.42
2024-02-10T07:35:54.037Z,12.23
2024-02-10T07:38:21.995Z,5.28
2024-02-10T07:40:49.193Z,4.32
2024-02-10T07:43:19.876Z,9.65
2024-02-10T07:45:47.002Z,5.38
2024-02-10T07:48:14.182Z,4.15
2024-02-10T07:50:42.891Z,9.43
2024-02-10T07:53:14.696Z,3.63
2024-02-10T07:55:46.029Z,4.40
2024-02-10T07:58:16.902Z,7.57
2024-02-10T08:00:44.788Z,7.22
2024-02-10T08:03:13.172Z,11.30
2024-02-10T08:05:42.713Z,13.07
2024-02-10T08:08:10.429Z,14.23
2024-02-10T08:10:37.967Z,16.80
2024-02-10T08:13:05.197Z,9.25
2024-02-10T08:15:32.708Z,5.78
2024-02-10T08:18:06.529Z,10.38
2024-02-10T08:23:02.768Z,13.23
2024-02-10T08:25:30.035Z,18.17
2024-02-10T08:28:01.018Z,14.50
2024-02-10T08:30:28.554Z,14.05
2024-02-10T08:32:58.087Z,8.23
2024-02-10T08:35:26.147Z,20.33
2024-02-10T08:37:53.971Z,9.27
2024-02-10T08:40:21.035Z,13.05
2024-02-10T08:42:50.532Z,11.77
2024-02-10T08:45:17.564Z,8.05
2024-02-10T08:47:44.734Z,14.27
2024-02-10T08:50:13.803Z,7.25
2024-02-10T08:52:41.030Z,10.32
2024-02-10T08:55:08.585Z,8.52
2024-02-10T08:57:37.634Z,19.13
2024-02-10T09:00:06.927Z,6.70
2024-02-10T09:02:34.071Z,8.30
2024-02-10T09:05:04.961Z,10.85
2024-02-10T09:07:33.040Z,20.40
2024-02-10T09:10:00.290Z,11.55
2024-02-10T09:12:28.207Z,13.20
2024-02-10T09:14:55.374Z,11.70
2024-02-10T09:17:24.530Z,14.65
2024-02-10T09:19:51.526Z,7.82
2024-02-10T09:22:18.814Z,15.60
2024-02-10T09:24:45.755Z,12.05
2024-02-10T09:27:12.812Z,8.80
2024-02-10T09:29:39.887Z,8.05
2024-02-10T09:32:07.415Z,11.45
2024-02-10T09:34:34.937Z,22.55
2024-02-10T09:37:01.963Z,9.20
2024-02-10T09:39:29.159Z,16.17
2024-02-10T09:42:05.392Z,15.73
2024-02-10T09:44:35.049Z,9.95
2024-02-10T09:47:03.018Z,10.88
2024-02-10T09:49:34.006Z,11.18
2024-02-10T09:52:01.155Z,15.45
2024-02-10T09:54:28.197Z,15.38
2024-02-10T09:56:57.856Z,13.98
2024-02-10T09:59:26.433Z,18.05
2024-02-10T10:01:56.569Z,24.38
2024-02-10T10:04:23.875Z,15.07
2024-02-10T10:06:51.369Z,14.15
2024-02-10T10:09:22.615Z,17.67
2024-02-10T10:11:52.044Z,16.17
2024-02-10T10:14:20.840Z,21.35
2024-02-10T10:16:59.266Z,15.73
2024-02-10T10:19:31.250Z,22.13
2024-02-10T10:21:59.937Z,23.50
2024-02-10T10:24:28.766Z,18.60
2024-02-10T10:26:57.911Z,29.08
2024-02-10T10:29:25.309Z,37.70
2024-02-10T10:31:55.172Z,21.75
2024-02-10T10:34:24.791Z,17.08
2024-02-10T10:36:54.671Z,21.30
2024-02-10T10:39:23.732Z,16.60
2024-02-10T10:41:53.700Z,17.42
2024-02-10T10:44:22.600Z,14.85
2024-02-10T10:46:50.234Z,20.52
2024-02-10T10:49:17.710Z,17.20
2024-02-10T10:52:06.299Z,20.42
2024-02-10T10:54:35.909Z,25.20
2024-02-10T10:57:14.264Z,13.52
2024-02-10T10:59:43.767Z,17.95
2024-02-10T11:02:16.263Z,23.95
2024-02-10T11:04:47.775Z,23.83
2024-02-10T11:07:16.817Z,21.92
2024-02-10T11:09:53.245Z,18.38
2024-02-10T11:12:20.582Z,17.98
2024-02-10T11:14:57.819Z,26.83
2024-02-10T11:17:31.089Z,23.85
2024-02-10T11:20:02.799Z,18.50
2024-02-10T11:22:39.307Z,28.05
2024-02-10T11:25:16.675Z,20.38
2024-02-10T11:27:48.335Z,21.10
2024-02-10T11:30:15.611Z,24.27
2024-02-10T11:32:49.313Z,34.20
2024-02-10T11:37:43.679Z,21.42
2024-02-10T11:40:20.925Z,26.45
2024-02-10T11:42:50.084Z,18.38
2024-02-10T11:45:21.079Z,26.88
2024-02-10T11:47:54.771Z,19.88
2024-02-10T11:50:22.315Z,21.45
2024-02-10T11:52:49.494Z,15.68
2024-02-10T11:55:20.539Z,27.10
2024-02-10T11:57:48.236Z,24.40
2024-02-10T12:00:16.002Z,22.58
2024-02-10T12:02:43.069Z,21.83
2024-02-10T12:05:10.229Z,15.95
2024-02-10T12:07:39.200Z,17.75
2024-02-10T12:10:07.561Z,17.70
2024-02-10T12:12:36.897Z,23.48
2024-02-10T12:15:05.002Z,25.63
2024-02-10T12:17:32.435Z,17.48
2024-02-10T12:20:01.231Z,18.50
2024-02-10T12:22:28.692Z,20.80
2024-02-10T12:24:55.790Z,20.08
2024-02-10T12:27:26.997Z,14.90
2024-02-10T12:29:54.185Z,19.98
2024-02-10T12:32:23.455Z,22.90
2024-02-10T12:34:50.619Z,17.08
2024-02-10T12:37:17.633Z,15.40
2024-02-10T12:39:44.585Z,20.95
2024-02-10T12:42:11.739Z,26.08
2024-02-10T12:44:39.350Z,20.42
2024-02-10T12:47:09.248Z,15.68
2024-02-10T12:49:38.259Z,16.48
2024-02-10T12:52:07.941Z,19.17
2024-02-10T12:54:35.067Z,13.95
2024-02-10T12:57:02.347Z,21.08
2024-02-10T12:59:30.387Z,19.63
2024-02-10T13:01:58.248Z,19.25
2024-02-10T13:04:29.010Z,24.15
2024-02-10T13:06:58.775Z,31.83
2024-02-10T13:09:25.951Z,23.80
2024-02-10T13:11:52.998Z,19.23
2024-02-10T13:14:19.953Z,26.33
2024-02-10T13:16:46.968Z,20.10
2024-02-10T13:19:16.141Z,23.10
2024-02-10T13:21:44.805Z,20.70
2024-02-10T13:24:11.681Z,21.85
2024-02-10T13:26:38.793Z,21.17
2024-02-10T13:29:05.927Z,22.98
2024-02-10T13:31:36.141Z,18.67
2024-02-10T13:34:12.170Z,23.55
2024-02-10T13:36:47.592Z,30.25
2024-02-10T13:39:33.889Z,36.03
2024-02-10T13:42:19.363Z,28.45
2024-02-10T13:45:06.000Z,34.15
2024-02-10T13:47:51.581Z,25.15
2024-02-10T13:50:37.193Z,24.92
2024-02-10T13:53:22.891Z,29.60
2024-02-10T13:56:09.725Z,40.05
2024-02-10T13:58:36.713Z,50.63
2024-02-10T14:01:03.700Z,29.05
2024-02-10T14:03:49.493Z,27.02
2024-02-10T14:06:35.390Z,24.30
2024-02-10T14:09:05.676Z,27.15
2024-02-10T14:11:34.303Z,31.00
2024-02-10T14:14:01.325Z,31.92
2024-02-10T14:16:34.028Z,27.73
2024-02-10T14:19:05.769Z,21.13
2024-02-10T14:21:34.610Z,29.88
2024-02-10T14:24:01.835Z,17.83
2024-02-10T14:26:43.716Z,29.48
2024-02-10T14:29:30.962Z,20.48
2024-02-10T14:32:11.011Z,27.33
2024-02-10T14:34:49.346Z,16.95
2024-02-10T14:37:32.202Z,23.67
2024-02-10T14:40:01.198Z,27.38
2024-02-10T14:42:28.609Z,27.08
2024-02-10T14:44:55.823Z,29.42
2024-02-10T14:47:25.408Z,34.58
2024-02-10T14:49:52.660Z,30.88
2024-02-10T14:52:20.610Z,23.92
2024-02-10T14:54:47.560Z,25.35
2024-02-10T14:57:18.175Z,19.90
2024-02-10T14:59:46.105Z,23.23
2024-02-10T15:02:12.978Z,21.90
2024-02-10T15:04:44.299Z,23.73
2024-02-10T15:07:11.309Z,25.48
2024-02-10T15:09:38.209Z,20.98
2024-02-10T15:12:07.217Z,22.83
2024-02-10T15:14:34.281Z,22.30
2024-02-10T15:17:07.335Z,18.90
2024-02-10T15:19:36.879Z,24.20
2024-02-10T15:22:04.046Z,15.98
2024-02-10T15:24:31.137Z,19.05
2024-02-10T15:26:59.437Z,23.40
2024-02-10T15:29:26.387Z,23.55
2024-02-10T15:31:55.547Z,15.68
2024-02-10T15:34:22.748Z,13.20
2024-02-10T15:36:53.862Z,19.05
2024-02-10T15:39:20.794Z,24.20
2024-02-10T15:41:48.416Z,16.08
2024-02-10T15:44:16.279Z,19.20
2024-02-10T15:46:43.395Z,24.45
2024-02-10T15:49:11.500Z,21.73
2024-02-10T15:51:40.148Z,20.73
2024-02-10T15:54:11.129Z,20.55
2024-02-10T15:56:45.558Z,21.17
2024-02-10T15:59:14.739Z,15.68
2024-02-10T16:01:43.192Z,22.77
2024-02-10T16:04:12.649Z,10.93
2024-02-10T16:06:45.657Z,14.70
2024-02-10T16:09:13.401Z,29.23
2024-02-10T16:11:40.563Z,25.52
2024-02-10T16:14:08.916Z,25.55
2024-02-10T16:16:36.057Z,12.23
2024-02-10T16:19:03.103Z,14.90
2024-02-10T16:21:30.854Z,24.55
2024-02-10T16:24:01.136Z,13.48
2024-02-10T16:26:28.225Z,16.98
2024-02-10T16:28:57.036Z,24.67
2024-02-10T16:31:25.877Z,16.85
2024-02-10T16:33:54.369Z,13.23
2024-02-10T16:36:25.332Z,13.80
2024-02-10T16:38:52.883Z,22.52
2024-02-10T16:41:25.650Z,16.30
2024-02-10T16:43:52.592Z,11.05
2024-02-10T16:46:19.564Z,16.20
2024-02-10T16:48:49.386Z,21.45
2024-02-10T16:51:26.576Z,10.35
2024-02-10T16:53:56.421Z,12.93
2024-02-10T16:56:24.056Z,11.13
2024-02-10T16:58:51.299Z,11.75
2024-02-10T17:01:20.172Z,11.52
2024-02-10T17:03:47.857Z,8.65
2024-02-10T17:06:16.212Z,10.82
2024-02-10T17:08:46.417Z,15.13
2024-02-10T17:11:13.498Z,7.55
2024-02-10T17:13:40.643Z,11.38
2024-02-10T17:16:08.609Z,10.75
2024-02-10T17:18:35.698Z,8.73
2024-02-10T17:21:04.396Z,11.73
2024-02-10T17:23:34.401Z,9.98
2024-02-10T17:26:08.235Z,7.78
2024-02-10T17:31:02.511Z,8.20
2024-02-10T17:33:29.513Z,7.38
2024-02-10T17:35:57.185Z,6.80
2024-02-10T17:38:26.929Z,6.50
2024-02-10T17:40:56.643Z,8.80
2024-02-10T17:43:25.143Z,10.88
2024-02-10T17:45:53.878Z,8.95
2024-02-10T17:48:22.333Z,7.43
2024-02-10T17:50:53.928Z,21.85
2024-02-10T17:53:24.392Z,8.70
2024-02-10T17:55:54.962Z,8.98
2024-02-10T17:58:24.183Z,9.27
2024-02-10T18:00:52.960Z,24.13
2024-02-10T18:03:23.301Z,13.68
2024-02-10T18:05:51.950Z,15.70
2024-02-10T18:08:20.207Z,9.82
2024-02-10T18:10:50.806Z,14.07
2024-02-10T18:13:18.598Z,24.92
2024-02-10T18:15:45.511Z,25.02
2024-02-10T18:18:12.720Z,37.13
2024-02-10T18:20:39.916Z,47.83
2024-02-10T18:23:08.119Z,28.42
2024-02-10T18:25:36.428Z,33.72
2024-02-10T18:28:05.428Z,50.40
2024-02-10T18:30:32.406Z,54.90
2024-02-10T18:33:00.181Z,59.30
2024-02-10T18:35:27.521Z,40.90
2024-02-10T18:37:58.310Z,63.70
2024-02-10T18:40:30.515Z,68.20
2024-02-10T18:42:59.521Z,88.00
2024-02-10T18:45:34.068Z,54.67
2024-02-10T18:48:02.181Z,78.55
2024-02-10T18:50:29.379Z,66.00
2024-02-10T18:53:00.468Z,70.40
2024-02-10T18:55:30.173Z,73.10
2024-02-10T18:58:01.693Z,57.72
2024-02-10T19:00:30.398Z,68.47
2024-02-10T19:02:57.605Z,58.35
2024-02-10T19:05:24.710Z,88.65
2024-02-10T19:07:51.795Z,79.03
2024-02-10T19:10:20.493Z,68.45
2024-02-10T19:12:50.788Z,85.03
2024-02-10T19:15:20.609Z,92.60
2024-02-10T19:17:50.163Z,72.50
2024-02-10T19:20:19.241Z,82.30
2024-02-10T19:22:48.496Z,66.80
2024-02-10T19:25:21.186Z,59.70
2024-02-10T19:27:51.911Z,68.47
2024-02-10T19:30:20.659Z,59.72
2024-02-10T19:32:49.345Z,85.28
2024-02-10T19:35:21.391Z,74.20
2024-02-10T19:37:50.436Z,58.58
2024-02-10T19:40:19.571Z,96.30
2024-02-10T19:42:47.767Z,71.30
2024-02-10T19:45:16.654Z,81.57
2024-02-10T19:47:48.092Z,79.95
2024-02-10T19:50:19.384Z,79.65
2024-02-10T19:52:47.757Z,91.38
2024-02-10T19:55:15.681Z,86.22
2024-02-10T19:57:43.054Z,79.43
2024-02-10T20:00:11.582Z,86.05
2024-02-10T20:02:44.084Z,70.20
2024-02-10T20:05:12.934Z,84.40
2024-02-10T20:07:42.288Z,80.78
2024-02-10T20:10:09.905Z,91.47
2024-02-10T20:12:39.588Z,113.50
2024-02-10T20:15:07.485Z,71.22
2024-02-10T20:17:34.538Z,101.60
2024-02-10T20:20:08.059Z,67.75
2024-02-10T20:22:35.648Z,101.65
2024-02-10T20:25:05.711Z,85.82
2024-02-10T20:27:32.850Z,69.68
2024-02-10T20:30:00.403Z,67.07
2024-02-10T20:32:27.842Z,83.47
2024-02-10T20:34:55.148Z,111.40
2024-02-10T20:37:22.225Z,81.32
2024-02-10T20:39:50.634Z,68.70
2024-02-10T20:42:18.694Z,73.35
2024-02-10T20:44:48.410Z,83.15
2024-02-10T20:47:17.255Z,72.93
2024-02-10T20:49:44.955Z,73.75
2024-02-10T20:52:16.245Z,58.30
2024-02-10T20:54:44.546Z,60.92
2024-02-10T20:57:12.400Z,75.63
2024-02-10T20:59:40.161Z,64.57
2024-02-10T21:02:08.261Z,64.10
2024-02-10T21:04:36.591Z,60.28
2024-02-10T21:07:03.868Z,51.58
2024-02-10T21:09:30.932Z,56.55
2024-02-10T21:12:00.151Z,55.42
2024-02-10T21:14:28.559Z,60.22
2024-02-10T21:16:58.806Z,49.03
2024-02-10T21:19:26.136Z,49.22
2024-02-10T21:21:53.361Z,66.18
2024-02-10T21:24:22.592Z,58.05
2024-02-10T21:26:50.338Z,46.55
2024-02-10T21:29:17.814Z,48.47
2024-02-10T21:31:45.460Z,52.70
2024-02-10T21:34:12.641Z,34.17
2024-02-10T21:36:41.529Z,51.80
2024-02-10T21:39:17.442Z,56.95
2024-02-10T21:41:47.975Z,51.80
2024-02-10T21:44:16.289Z,36.95
2024-02-10T21:46:43.825Z,42.40
2024-02-10T21:49:12.437Z,42.70
2024-02-10T21:51:51.283Z,59.88
2024-02-10T21:54:19.608Z,49.95
2024-02-10T21:56:47.356Z,55.10
2024-02-10T21:59:17.234Z,50.20
2024-02-10T22:01:50.092Z,44.88
2024-02-10T22:04:17.620Z,34.13
2024-02-10T22:06:44.688Z,27.30
2024-02-10T22:09:11.936Z,43.58
2024-02-10T22:11:39.109Z,61.63
2024-02-10T22:14:11.465Z,51.20
2024-02-10T22:16:38.776Z,41.13
2024-02-10T22:19:06.268Z,38.85
2024-02-10T22:21:33.335Z,50.55
2024-02-10T22:24:00.345Z,44.83
2024-02-10T22:26:30.516Z,46.45
2024-02-10T22:28:59.028Z,37.97
2024-02-10T22:31:31.556Z,48.50
2024-02-10T22:34:00.063Z,44.97
2024-02-10T22:36:27.568Z,37.53
2024-02-10T22:38:56.824Z,38.35
2024-02-10T22:41:24.625Z,34.65
2024-02-10T22:43:51.530Z,32.30
2024-02-10T22:46:18.681Z,54.85
2024-02-10T22:48:45.800Z,42.00
2024-02-10T22:51:16.729Z,53.78
2024-02-10T22:53:43.690Z,38.05
2024-02-10T22:56:12.574Z,43.70
2024-02-10T22:58:40.581Z,37.33
2024-02-10T23:01:07.737Z,43.35
2024-02-10T23:03:35.151Z,37.63
2024-02-10T23:06:02.368Z,37.28
2024-02-10T23:08:33.051Z,47.70
2024-02-10T23:11:01.564Z,40.05
2024-02-10T23:13:29.178Z,49.00
2024-02-10T23:15:56.413Z,46.90
2024-02-10T23:18:27.295Z,36.20
2024-02-10T23:20:54.835Z,42.08
2024-02-10T23:23:28.905Z,31.98
2024-02-10T23:25:57.055Z,38.03
2024-02-10T23:28:24.113Z,36.67
2024-02-10T23:30:53.026Z,32.28
2024-02-10T23:33:21.587Z,30.40
2024-02-10T23:35:49.116Z,32.55
2024-02-10T23:38:17.145Z,20.67
2024-02-10T23:40:45.426Z,28.52
2024-02-10T23:43:15.994Z,36.67
2024-02-10T23:45:43.833Z,56.55
2024-02-10T23:48:11.897Z,33.00
2024-02-10T23:50:39.227Z,54.65
2024-02-10T23:53:06.322Z,27.10
2024-02-10T23:55:34.864Z,27.00
2024-02-10T23:58:05.599Z,47.08
